sensor_id;sensor_type;location;lat;lon;timestamp;temperature;humidity
10314;DHT22;5202;49.138;10.090;2023-01-10T00:01:50;3.90;99.90
10314;DHT22;5202;49.138;10.090;2023-01-10T00:04:18;3.90;99.90
10314;DHT22;5202;49.138;10.090;2023-01-10T00:06:47;3.90;99.90
10314;DHT22;5202;49.138;10.090;2023-01-10T00:09:16;3.90;99.90
10314;DHT22;5202;49.138;10.090;2023-01-10T00:11:44;3.90;99.90
10314;DHT22;5202;49.138;10.090;2023-01-10T00:14:30;3.90;99.90
10314;DHT22;5202;49.138;10.090;2023-01-10T00:17:00;3.90;99.90
10314;DHT22;5202;49.138;10.090;2023-01-10T00:19:29;3.90;99.90
10314;DHT22;5202;49.138;10.090;2023-01-10T00:21:57;3.90;99.90
10314;DHT22;5202;49.138;10.090;2023-01-10T00:24:39;3.90;99.90
10314;DHT22;5202;49.138;10.090;2023-01-10T00:27:09;3.90;99.90
10314;DHT22;5202;49.138;10.090;2023-01-10T00:29:40;3.90;99.90
10314;DHT22;5202;49.138;10.090;2023-01-10T00:32:08;3.90;99.90
10314;DHT22;5202;49.138;10.090;2023-01-10T00:34:36;3.90;99.90
10314;DHT22;5202;49.138;10.090;2023-01-10T00:37:04;3.90;99.90
10314;DHT22;5202;49.138;10.090;2023-01-10T00:39:33;3.90;99.90
10314;DHT22;5202;49.138;10.090;2023-01-10T00:42:03;3.90;99.90
10314;DHT22;5202;49.138;10.090;2023-01-10T00:44:49;3.90;99.90
10314;DHT22;5202;49.138;10.090;2023-01-10T00:47:18;3.90;99.90
10314;DHT22;5202;49.138;10.090;2023-01-10T00:49:50;3.90;99.90
10314;DHT22;5202;49.138;10.090;2023-01-10T00:52:18;3.90;99.90
10314;DHT22;5202;49.138;10.090;2023-01-10T00:54:46;3.90;99.90
10314;DHT22;5202;49.138;10.090;2023-01-10T00:57:16;3.90;99.90
10314;DHT22;5202;49.138;10.090;2023-01-10T00:59:44;3.90;99.90
10314;DHT22;5202;49.138;10.090;2023-01-10T01:02:12;3.90;99.90
10314;DHT22;5202;49.138;10.090;2023-01-10T01:04:42;3.90;99.90
10314;DHT22;5202;49.138;10.090;2023-01-10T01:07:10;3.90;99.90
10314;DHT22;5202;49.138;10.090;2023-01-10T01:09:38;3.90;99.90
10314;DHT22;5202;49.138;10.090;2023-01-10T01:12:28;3.90;99.90
10314;DHT22;5202;49.138;10.090;2023-01-10T01:14:56;4.00;99.90
10314;DHT22;5202;49.138;10.090;2023-01-10T01:17:25;3.90;99.90
10314;DHT22;5202;49.138;10.090;2023-01-10T01:19:53;3.90;99.90
10314;DHT22;5202;49.138;10.090;2023-01-10T01:22:21;3.90;99.90
10314;DHT22;5202;49.138;10.090;2023-01-10T01:24:49;3.90;99.90
10314;DHT22;5202;49.138;10.090;2023-01-10T01:27:17;3.90;99.90
10314;DHT22;5202;49.138;10.090;2023-01-10T01:29:50;3.90;99.90
10314;DHT22;5202;49.138;10.090;2023-01-10T01:32:18;3.90;99.90
10314;DHT22;5202;49.138;10.090;2023-01-10T01:34:47;3.80;99.90
10314;DHT22;5202;49.138;10.090;2023-01-10T01:37:16;3.80;99.90
10314;DHT22;5202;49.138;10.090;2023-01-10T01:39:45;3.80;99.90
10314;DHT22;5202;49.138;10.090;2023-01-10T01:42:22;3.80;99.90
10314;DHT22;5202;49.138;10.090;2023-01-10T01:45:24;3.80;99.90
10314;DHT22;5202;49.138;10.090;2023-01-10T01:48:06;3.80;99.90
10314;DHT22;5202;49.138;10.090;2023-01-10T01:50:40;3.80;99.90
10314;DHT22;5202;49.138;10.090;2023-01-10T01:53:13;3.80;99.90
10314;DHT22;5202;49.138;10.090;2023-01-10T01:55:45;3.90;99.90
10314;DHT22;5202;49.138;10.090;2023-01-10T01:58:17;3.80;99.90
10314;DHT22;5202;49.138;10.090;2023-01-10T02:00:50;3.80;99.90
10314;DHT22;5202;49.138;10.090;2023-01-10T02:03:18;3.80;99.90
10314;DHT22;5202;49.138;10.090;2023-01-10T02:05:46;3.80;99.90
10314;DHT22;5202;49.138;10.090;2023-01-10T02:08:15;3.80;99.90
10314;DHT22;5202;49.138;10.090;2023-01-10T02:10:47;3.80;99.90
10314;DHT22;5202;49.138;10.090;2023-01-10T02:13:22;3.90;99.90
10314;DHT22;5202;49.138;10.090;2023-01-10T02:15:52;3.80;99.90
10314;DHT22;5202;49.138;10.090;2023-01-10T02:18:21;3.80;99.90
10314;DHT22;5202;49.138;10.090;2023-01-10T02:21:02;3.80;99.90
10314;DHT22;5202;49.138;10.090;2023-01-10T02:24:04;3.80;99.90
10314;DHT22;5202;49.138;10.090;2023-01-10T02:27:12;3.80;99.90
10314;DHT22;5202;49.138;10.090;2023-01-10T02:30:14;3.80;99.90
10314;DHT22;5202;49.138;10.090;2023-01-10T02:32:59;3.80;99.90
10314;DHT22;5202;49.138;10.090;2023-01-10T02:35:47;3.80;99.90
10314;DHT22;5202;49.138;10.090;2023-01-10T02:38:31;3.80;99.90
10314;DHT22;5202;49.138;10.090;2023-01-10T02:41:09;3.80;99.90
10314;DHT22;5202;49.138;10.090;2023-01-10T02:43:45;3.80;99.90
10314;DHT22;5202;49.138;10.090;2023-01-10T02:46:18;3.80;99.90
10314;DHT22;5202;49.138;10.090;2023-01-10T02:48:53;3.80;99.90
10314;DHT22;5202;49.138;10.090;2023-01-10T02:51:23;3.80;99.90
10314;DHT22;5202;49.138;10.090;2023-01-10T02:53:57;3.80;99.90
10314;DHT22;5202;49.138;10.090;2023-01-10T02:56:42;3.80;99.90
10314;DHT22;5202;49.138;10.090;2023-01-10T02:59:58;3.90;99.90
10314;DHT22;5202;49.138;10.090;2023-01-10T03:02:55;3.90;99.90
10314;DHT22;5202;49.138;10.090;2023-01-10T03:05:48;3.80;99.90
10314;DHT22;5202;49.138;10.090;2023-01-10T03:08:26;3.80;99.90
10314;DHT22;5202;49.138;10.090;2023-01-10T03:11:01;3.80;99.90
10314;DHT22;5202;49.138;10.090;2023-01-10T03:13:34;3.70;99.90
10314;DHT22;5202;49.138;10.090;2023-01-10T03:16:11;3.70;99.90
10314;DHT22;5202;49.138;10.090;2023-01-10T03:18:45;3.70;99.90
10314;DHT22;5202;49.138;10.090;2023-01-10T03:21:18;3.70;99.90
10314;DHT22;5202;49.138;10.090;2023-01-10T03:23:49;3.70;99.90
10314;DHT22;5202;49.138;10.090;2023-01-10T03:26:26;3.70;99.90
10314;DHT22;5202;49.138;10.090;2023-01-10T03:29:02;3.60;99.90
10314;DHT22;5202;49.138;10.090;2023-01-10T03:31:37;3.70;99.90
10314;DHT22;5202;49.138;10.090;2023-01-10T03:34:07;3.60;99.90
10314;DHT22;5202;49.138;10.090;2023-01-10T03:36:41;3.60;99.90
10314;DHT22;5202;49.138;10.090;2023-01-10T03:39:17;3.60;99.90
10314;DHT22;5202;49.138;10.090;2023-01-10T03:41:52;3.60;99.90
10314;DHT22;5202;49.138;10.090;2023-01-10T03:44:31;3.60;99.90
10314;DHT22;5202;49.138;10.090;2023-01-10T03:47:14;3.60;99.90
10314;DHT22;5202;49.138;10.090;2023-01-10T03:49:48;3.60;99.90
10314;DHT22;5202;49.138;10.090;2023-01-10T03:52:22;3.60;99.90
10314;DHT22;5202;49.138;10.090;2023-01-10T03:54:52;3.60;99.90
10314;DHT22;5202;49.138;10.090;2023-01-10T03:57:22;3.60;99.90
10314;DHT22;5202;49.138;10.090;2023-01-10T03:59:52;3.60;99.90
10314;DHT22;5202;49.138;10.090;2023-01-10T04:02:24;3.60;99.90
10314;DHT22;5202;49.138;10.090;2023-01-10T04:04:54;3.60;99.90
10314;DHT22;5202;49.138;10.090;2023-01-10T04:07:25;3.60;99.90
10314;DHT22;5202;49.138;10.090;2023-01-10T04:09:54;3.60;99.90
10314;DHT22;5202;49.138;10.090;2023-01-10T04:12:23;3.60;99.90
10314;DHT22;5202;49.138;10.090;2023-01-10T04:14:51;3.60;99.90
10314;DHT22;5202;49.138;10.090;2023-01-10T04:17:19;3.60;99.90
10314;DHT22;5202;49.138;10.090;2023-01-10T04:19:48;3.60;99.90
10314;DHT22;5202;49.138;10.090;2023-01-10T04:22:16;3.60;99.90
10314;DHT22;5202;49.138;10.090;2023-01-10T04:24:45;3.60;99.90
10314;DHT22;5202;49.138;10.090;2023-01-10T04:27:14;3.60;99.90
10314;DHT22;5202;49.138;10.090;2023-01-10T04:29:42;3.60;99.90
10314;DHT22;5202;49.138;10.090;2023-01-10T04:32:10;3.60;99.90
10314;DHT22;5202;49.138;10.090;2023-01-10T04:34:39;3.50;99.90
10314;DHT22;5202;49.138;10.090;2023-01-10T04:37:07;3.50;99.90
10314;DHT22;5202;49.138;10.090;2023-01-10T04:39:35;3.50;99.90
10314;DHT22;5202;49.138;10.090;2023-01-10T04:42:05;3.50;99.90
10314;DHT22;5202;49.138;10.090;2023-01-10T04:44:33;3.50;99.90
10314;DHT22;5202;49.138;10.090;2023-01-10T04:47:01;3.50;99.90
10314;DHT22;5202;49.138;10.090;2023-01-10T04:49:29;3.50;99.90
10314;DHT22;5202;49.138;10.090;2023-01-10T04:51:58;3.50;99.90
10314;DHT22;5202;49.138;10.090;2023-01-10T04:54:26;3.50;99.90
10314;DHT22;5202;49.138;10.090;2023-01-10T04:56:54;3.50;99.90
10314;DHT22;5202;49.138;10.090;2023-01-10T04:59:24;3.40;99.90
10314;DHT22;5202;49.138;10.090;2023-01-10T05:01:52;3.40;99.90
10314;DHT22;5202;49.138;10.090;2023-01-10T05:04:20;3.40;99.90
10314;DHT22;5202;49.138;10.090;2023-01-10T05:06:51;3.40;99.90
10314;DHT22;5202;49.138;10.090;2023-01-10T05:09:20;3.40;99.90
10314;DHT22;5202;49.138;10.090;2023-01-10T05:11:51;3.40;99.90
10314;DHT22;5202;49.138;10.090;2023-01-10T05:14:19;3.50;99.90
10314;DHT22;5202;49.138;10.090;2023-01-10T05:16:49;3.40;99.90
10314;DHT22;5202;49.138;10.090;2023-01-10T05:19:17;3.40;99.90
10314;DHT22;5202;49.138;10.090;2023-01-10T05:21:45;3.40;99.90
10314;DHT22;5202;49.138;10.090;2023-01-10T05:24:13;3.40;99.90
10314;DHT22;5202;49.138;10.090;2023-01-10T05:26:42;3.40;99.90
10314;DHT22;5202;49.138;10.090;2023-01-10T05:29:10;3.40;99.90
10314;DHT22;5202;49.138;10.090;2023-01-10T05:31:40;3.40;99.90
10314;DHT22;5202;49.138;10.090;2023-01-10T05:34:11;3.40;99.90
10314;DHT22;5202;49.138;10.090;2023-01-10T05:36:39;3.40;99.90
10314;DHT22;5202;49.138;10.090;2023-01-10T05:39:07;3.40;99.90
10314;DHT22;5202;49.138;10.090;2023-01-10T05:41:36;3.40;99.90
10314;DHT22;5202;49.138;10.090;2023-01-10T05:44:04;3.40;99.90
10314;DHT22;5202;49.138;10.090;2023-01-10T05:46:33;3.30;99.90
10314;DHT22;5202;49.138;10.090;2023-01-10T05:49:02;3.30;99.90
10314;DHT22;5202;49.138;10.090;2023-01-10T05:51:31;3.30;99.90
10314;DHT22;5202;49.138;10.090;2023-01-10T05:54:00;3.30;99.90
10314;DHT22;5202;49.138;10.090;2023-01-10T05:56:28;3.20;99.90
10314;DHT22;5202;49.138;10.090;2023-01-10T05:58:56;3.20;99.90
10314;DHT22;5202;49.138;10.090;2023-01-10T06:01:35;3.20;99.90
10314;DHT22;5202;49.138;10.090;2023-01-10T06:04:03;3.20;99.90
10314;DHT22;5202;49.138;10.090;2023-01-10T06:06:33;3.20;99.90
10314;DHT22;5202;49.138;10.090;2023-01-10T06:09:01;3.30;99.90
10314;DHT22;5202;49.138;10.090;2023-01-10T06:11:30;3.30;99.90
10314;DHT22;5202;49.138;10.090;2023-01-10T06:14:02;3.30;99.90
10314;DHT22;5202;49.138;10.090;2023-01-10T06:16:31;3.30;99.90
10314;DHT22;5202;49.138;10.090;2023-01-10T06:18:59;3.30;99.90
10314;DHT22;5202;49.138;10.090;2023-01-10T06:21:28;3.30;99.90
10314;DHT22;5202;49.138;10.090;2023-01-10T06:23:57;3.30;99.90
10314;DHT22;5202;49.138;10.090;2023-01-10T06:26:25;3.30;99.90
10314;DHT22;5202;49.138;10.090;2023-01-10T06:28:54;3.30;99.90
10314;DHT22;5202;49.138;10.090;2023-01-10T06:31:25;3.30;99.90
10314;DHT22;5202;49.138;10.090;2023-01-10T06:33:53;3.30;99.90
10314;DHT22;5202;49.138;10.090;2023-01-10T06:36:22;3.30;99.90
10314;DHT22;5202;49.138;10.090;2023-01-10T06:38:50;3.30;99.90
10314;DHT22;5202;49.138;10.090;2023-01-10T06:41:19;3.30;99.90
10314;DHT22;5202;49.138;10.090;2023-01-10T06:43:48;3.30;99.90
10314;DHT22;5202;49.138;10.090;2023-01-10T06:46:18;3.30;99.90
10314;DHT22;5202;49.138;10.090;2023-01-10T06:48:47;3.30;99.90
10314;DHT22;5202;49.138;10.090;2023-01-10T06:51:16;3.30;99.90
10314;DHT22;5202;49.138;10.090;2023-01-10T06:53:46;3.30;99.90
10314;DHT22;5202;49.138;10.090;2023-01-10T06:56:14;3.30;99.90
10314;DHT22;5202;49.138;10.090;2023-01-10T06:58:47;3.30;99.90
10314;DHT22;5202;49.138;10.090;2023-01-10T07:01:18;3.30;99.90
10314;DHT22;5202;49.138;10.090;2023-01-10T07:03:47;3.20;99.90
10314;DHT22;5202;49.138;10.090;2023-01-10T07:06:19;3.20;99.90
10314;DHT22;5202;49.138;10.090;2023-01-10T07:08:47;3.30;99.90
10314;DHT22;5202;49.138;10.090;2023-01-10T07:11:15;3.30;99.90
10314;DHT22;5202;49.138;10.090;2023-01-10T07:13:45;3.30;99.90
10314;DHT22;5202;49.138;10.090;2023-01-10T07:16:14;3.30;99.90
10314;DHT22;5202;49.138;10.090;2023-01-10T07:18:43;3.30;99.90
10314;DHT22;5202;49.138;10.090;2023-01-10T07:21:13;3.30;99.90
10314;DHT22;5202;49.138;10.090;2023-01-10T07:23:46;3.30;99.90
10314;DHT22;5202;49.138;10.090;2023-01-10T07:26:15;3.30;99.90
10314;DHT22;5202;49.138;10.090;2023-01-10T07:28:47;3.30;99.90
10314;DHT22;5202;49.138;10.090;2023-01-10T07:31:18;3.30;99.90
10314;DHT22;5202;49.138;10.090;2023-01-10T07:33:49;3.30;99.90
10314;DHT22;5202;49.138;10.090;2023-01-10T07:36:18;3.30;99.90
10314;DHT22;5202;49.138;10.090;2023-01-10T07:38:47;3.30;99.90
10314;DHT22;5202;49.138;10.090;2023-01-10T07:41:15;3.30;99.90
10314;DHT22;5202;49.138;10.090;2023-01-10T07:43:43;3.40;99.90
10314;DHT22;5202;49.138;10.090;2023-01-10T07:46:13;3.30;99.90
10314;DHT22;5202;49.138;10.090;2023-01-10T07:48:41;3.40;99.90
10314;DHT22;5202;49.138;10.090;2023-01-10T07:51:11;3.40;99.90
10314;DHT22;5202;49.138;10.090;2023-01-10T07:53:40;3.40;99.90
10314;DHT22;5202;49.138;10.090;2023-01-10T07:56:08;3.40;99.90
10314;DHT22;5202;49.138;10.090;2023-01-10T07:58:36;3.40;99.90
10314;DHT22;5202;49.138;10.090;2023-01-10T08:01:05;3.40;99.90
10314;DHT22;5202;49.138;10.090;2023-01-10T08:03:35;3.40;99.90
10314;DHT22;5202;49.138;10.090;2023-01-10T08:06:05;3.40;99.90
10314;DHT22;5202;49.138;10.090;2023-01-10T08:08:36;3.40;99.90
10314;DHT22;5202;49.138;10.090;2023-01-10T08:11:05;3.40;99.90
10314;DHT22;5202;49.138;10.090;2023-01-10T08:13:33;3.40;99.90
10314;DHT22;5202;49.138;10.090;2023-01-10T08:16:04;3.40;99.90
10314;DHT22;5202;49.138;10.090;2023-01-10T08:18:34;3.40;99.90
10314;DHT22;5202;49.138;10.090;2023-01-10T08:21:04;3.40;99.90
10314;DHT22;5202;49.138;10.090;2023-01-10T08:23:33;3.40;99.90
10314;DHT22;5202;49.138;10.090;2023-01-10T08:26:01;3.40;99.90
10314;DHT22;5202;49.138;10.090;2023-01-10T08:28:30;3.40;99.90
10314;DHT22;5202;49.138;10.090;2023-01-10T08:30:58;3.40;99.90
10314;DHT22;5202;49.138;10.090;2023-01-10T08:33:32;3.40;99.90
10314;DHT22;5202;49.138;10.090;2023-01-10T08:36:01;3.40;99.90
10314;DHT22;5202;49.138;10.090;2023-01-10T08:38:30;3.40;99.90
10314;DHT22;5202;49.138;10.090;2023-01-10T08:40:58;3.40;99.90
10314;DHT22;5202;49.138;10.090;2023-01-10T08:43:26;3.40;99.90
10314;DHT22;5202;49.138;10.090;2023-01-10T08:45:55;3.40;99.90
10314;DHT22;5202;49.138;10.090;2023-01-10T08:48:23;3.40;99.90
10314;DHT22;5202;49.138;10.090;2023-01-10T08:50:52;3.50;99.90
10314;DHT22;5202;49.138;10.090;2023-01-10T08:53:24;3.50;99.90
10314;DHT22;5202;49.138;10.090;2023-01-10T08:55:57;3.50;99.90
10314;DHT22;5202;49.138;10.090;2023-01-10T08:58:25;3.60;99.90
10314;DHT22;5202;49.138;10.090;2023-01-10T09:00:54;3.60;99.90
10314;DHT22;5202;49.138;10.090;2023-01-10T09:03:23;3.60;99.90
10314;DHT22;5202;49.138;10.090;2023-01-10T09:05:51;3.60;99.90
10314;DHT22;5202;49.138;10.090;2023-01-10T09:08:24;3.70;99.90
10314;DHT22;5202;49.138;10.090;2023-01-10T09:10:53;3.70;99.90
10314;DHT22;5202;49.138;10.090;2023-01-10T09:13:21;3.80;99.90
10314;DHT22;5202;49.138;10.090;2023-01-10T09:15:50;4.00;99.90
10314;DHT22;5202;49.138;10.090;2023-01-10T09:18:20;4.10;99.90
10314;DHT22;5202;49.138;10.090;2023-01-10T09:20:49;4.20;99.90
10314;DHT22;5202;49.138;10.090;2023-01-10T09:26:20;4.20;99.90
10314;DHT22;5202;49.138;10.090;2023-01-10T09:28:48;4.10;99.90
10314;DHT22;5202;49.138;10.090;2023-01-10T09:31:17;4.10;99.90
10314;DHT22;5202;49.138;10.090;2023-01-10T09:33:46;4.00;99.90
10314;DHT22;5202;49.138;10.090;2023-01-10T09:36:16;3.90;99.90
10314;DHT22;5202;49.138;10.090;2023-01-10T09:38:45;3.90;99.90
10314;DHT22;5202;49.138;10.090;2023-01-10T09:44:18;3.90;99.90
10314;DHT22;5202;49.138;10.090;2023-01-10T09:46:55;3.90;99.90
10314;DHT22;5202;49.138;10.090;2023-01-10T09:49:47;3.90;99.90
10314;DHT22;5202;49.138;10.090;2023-01-10T09:52:27;3.90;99.90
10314;DHT22;5202;49.138;10.090;2023-01-10T09:55:17;3.90;99.90
10314;DHT22;5202;49.138;10.090;2023-01-10T09:57:51;4.00;99.90
10314;DHT22;5202;49.138;10.090;2023-01-10T10:00:22;4.00;99.90
10314;DHT22;5202;49.138;10.090;2023-01-10T10:02:52;4.00;99.90
10314;DHT22;5202;49.138;10.090;2023-01-10T10:05:24;3.90;99.90
10314;DHT22;5202;49.138;10.090;2023-01-10T10:07:55;4.00;99.90
10314;DHT22;5202;49.138;10.090;2023-01-10T10:10:33;4.00;99.90
10314;DHT22;5202;49.138;10.090;2023-01-10T10:13:13;4.00;99.90
10314;DHT22;5202;49.138;10.090;2023-01-10T10:15:58;4.10;99.90
10314;DHT22;5202;49.138;10.090;2023-01-10T10:18:42;4.10;99.90
10314;DHT22;5202;49.138;10.090;2023-01-10T10:21:19;4.10;99.90
10314;DHT22;5202;49.138;10.090;2023-01-10T10:24:01;4.10;99.90
10314;DHT22;5202;49.138;10.090;2023-01-10T10:26:45;4.10;99.90
10314;DHT22;5202;49.138;10.090;2023-01-10T10:29:34;4.10;99.90
10314;DHT22;5202;49.138;10.090;2023-01-10T10:32:24;4.20;99.90
10314;DHT22;5202;49.138;10.090;2023-01-10T10:35:00;4.20;99.90
10314;DHT22;5202;49.138;10.090;2023-01-10T10:37:34;4.30;99.90
10314;DHT22;5202;49.138;10.090;2023-01-10T10:40:05;4.30;99.90
10314;DHT22;5202;49.138;10.090;2023-01-10T10:42:43;4.30;99.90
10314;DHT22;5202;49.138;10.090;2023-01-10T10:45:17;4.30;99.90
10314;DHT22;5202;49.138;10.090;2023-01-10T10:47:51;4.30;99.90
10314;DHT22;5202;49.138;10.090;2023-01-10T10:50:27;4.30;99.90
10314;DHT22;5202;49.138;10.090;2023-01-10T10:52:59;4.30;99.90
10314;DHT22;5202;49.138;10.090;2023-01-10T10:55:30;4.30;99.90
10314;DHT22;5202;49.138;10.090;2023-01-10T10:58:03;4.30;99.90
10314;DHT22;5202;49.138;10.090;2023-01-10T11:00:33;4.30;99.90
10314;DHT22;5202;49.138;10.090;2023-01-10T11:03:04;4.30;99.90
10314;DHT22;5202;49.138;10.090;2023-01-10T11:05:39;4.30;99.90
10314;DHT22;5202;49.138;10.090;2023-01-10T11:08:11;4.40;99.90
10314;DHT22;5202;49.138;10.090;2023-01-10T11:10:43;4.40;99.90
10314;DHT22;5202;49.138;10.090;2023-01-10T11:13:22;4.40;99.90
10314;DHT22;5202;49.138;10.090;2023-01-10T11:15:54;4.40;99.90
10314;DHT22;5202;49.138;10.090;2023-01-10T11:18:25;4.50;99.90
10314;DHT22;5202;49.138;10.090;2023-01-10T11:20:57;4.50;99.90
10314;DHT22;5202;49.138;10.090;2023-01-10T11:23:35;4.40;99.90
10314;DHT22;5202;49.138;10.090;2023-01-10T11:26:06;4.40;99.90
10314;DHT22;5202;49.138;10.090;2023-01-10T11:28:37;4.40;99.90
10314;DHT22;5202;49.138;10.090;2023-01-10T11:31:05;4.40;99.90
10314;DHT22;5202;49.138;10.090;2023-01-10T11:33:34;4.30;99.90
10314;DHT22;5202;49.138;10.090;2023-01-10T11:36:05;4.30;99.90
10314;DHT22;5202;49.138;10.090;2023-01-10T11:38:35;4.50;99.90
10314;DHT22;5202;49.138;10.090;2023-01-10T11:41:04;4.50;99.90
10314;DHT22;5202;49.138;10.090;2023-01-10T11:43:37;4.60;99.90
10314;DHT22;5202;49.138;10.090;2023-01-10T11:46:12;4.60;99.90
10314;DHT22;5202;49.138;10.090;2023-01-10T11:48:44;4.70;99.90
10314;DHT22;5202;49.138;10.090;2023-01-10T11:51:36;4.80;99.90
10314;DHT22;5202;49.138;10.090;2023-01-10T11:54:09;4.80;99.90
10314;DHT22;5202;49.138;10.090;2023-01-10T11:56:38;4.70;99.90
10314;DHT22;5202;49.138;10.090;2023-01-10T11:59:11;4.70;99.90
10314;DHT22;5202;49.138;10.090;2023-01-10T12:01:45;4.60;99.90
10314;DHT22;5202;49.138;10.090;2023-01-10T12:04:16;4.60;99.90
10314;DHT22;5202;49.138;10.090;2023-01-10T12:06:48;4.60;99.90
10314;DHT22;5202;49.138;10.090;2023-01-10T12:09:36;4.50;99.90
10314;DHT22;5202;49.138;10.090;2023-01-10T12:12:16;4.50;99.90
10314;DHT22;5202;49.138;10.090;2023-01-10T12:14:48;4.30;99.90
10314;DHT22;5202;49.138;10.090;2023-01-10T12:17:22;4.30;99.90
10314;DHT22;5202;49.138;10.090;2023-01-10T12:19:53;4.10;99.90
10314;DHT22;5202;49.138;10.090;2023-01-10T12:22:28;4.00;99.90
10314;DHT22;5202;49.138;10.090;2023-01-10T12:24:59;3.90;99.90
10314;DHT22;5202;49.138;10.090;2023-01-10T12:27:28;3.80;99.90
10314;DHT22;5202;49.138;10.090;2023-01-10T12:30:04;3.70;99.90
10314;DHT22;5202;49.138;10.090;2023-01-10T12:32:40;3.60;99.90
10314;DHT22;5202;49.138;10.090;2023-01-10T12:35:14;3.60;99.90
10314;DHT22;5202;49.138;10.090;2023-01-10T12:37:47;3.60;99.90
10314;DHT22;5202;49.138;10.090;2023-01-10T12:40:24;3.70;99.90
10314;DHT22;5202;49.138;10.090;2023-01-10T12:43:01;3.80;99.90
10314;DHT22;5202;49.138;10.090;2023-01-10T12:45:53;3.80;99.90
10314;DHT22;5202;49.138;10.090;2023-01-10T12:48:32;3.80;99.90
10314;DHT22;5202;49.138;10.090;2023-01-10T12:51:13;3.70;99.90
10314;DHT22;5202;49.138;10.090;2023-01-10T12:53:47;3.70;99.90
10314;DHT22;5202;49.138;10.090;2023-01-10T12:56:17;3.70;99.90
10314;DHT22;5202;49.138;10.090;2023-01-10T12:58:49;3.70;99.90
10314;DHT22;5202;49.138;10.090;2023-01-10T13:01:23;3.70;99.90
10314;DHT22;5202;49.138;10.090;2023-01-10T13:03:59;3.60;99.90
10314;DHT22;5202;49.138;10.090;2023-01-10T13:06:32;3.70;99.90
10314;DHT22;5202;49.138;10.090;2023-01-10T13:09:15;3.70;99.90
10314;DHT22;5202;49.138;10.090;2023-01-10T13:11:51;3.80;99.90
10314;DHT22;5202;49.138;10.090;2023-01-10T13:14:25;3.90;99.90
10314;DHT22;5202;49.138;10.090;2023-01-10T13:17:03;4.00;99.90
10314;DHT22;5202;49.138;10.090;2023-01-10T13:19:37;4.10;99.90
10314;DHT22;5202;49.138;10.090;2023-01-10T13:22:18;4.00;99.90
10314;DHT22;5202;49.138;10.090;2023-01-10T13:24:55;4.00;99.90
10314;DHT22;5202;49.138;10.090;2023-01-10T13:27:29;3.90;99.90
10314;DHT22;5202;49.138;10.090;2023-01-10T13:29:58;3.90;99.90
10314;DHT22;5202;49.138;10.090;2023-01-10T13:32:31;3.90;99.90
10314;DHT22;5202;49.138;10.090;2023-01-10T13:35:11;3.90;99.90
10314;DHT22;5202;49.138;10.090;2023-01-10T13:37:42;4.00;99.90
10314;DHT22;5202;49.138;10.090;2023-01-10T13:40:20;4.00;99.90
10314;DHT22;5202;49.138;10.090;2023-01-10T13:46:32;4.10;99.90
10314;DHT22;5202;49.138;10.090;2023-01-10T13:52:36;4.30;99.90
10314;DHT22;5202;49.138;10.090;2023-01-10T13:55:24;4.30;99.90
10314;DHT22;5202;49.138;10.090;2023-01-10T13:58:01;4.30;99.90
10314;DHT22;5202;49.138;10.090;2023-01-10T14:00:48;4.30;99.90
10314;DHT22;5202;49.138;10.090;2023-01-10T14:03:40;4.30;99.90
10314;DHT22;5202;49.138;10.090;2023-01-10T14:06:19;4.30;99.90
10314;DHT22;5202;49.138;10.090;2023-01-10T14:09:28;4.30;99.90
10314;DHT22;5202;49.138;10.090;2023-01-10T14:12:20;4.30;99.90
10314;DHT22;5202;49.138;10.090;2023-01-10T14:14:58;4.40;99.90
10314;DHT22;5202;49.138;10.090;2023-01-10T14:17:29;4.50;99.90
10314;DHT22;5202;49.138;10.090;2023-01-10T14:20:13;4.50;99.90
10314;DHT22;5202;49.138;10.090;2023-01-10T14:22:58;4.50;99.90
10314;DHT22;5202;49.138;10.090;2023-01-10T14:25:31;4.40;99.90
10314;DHT22;5202;49.138;10.090;2023-01-10T14:28:02;4.40;99.90
10314;DHT22;5202;49.138;10.090;2023-01-10T14:30:33;4.30;99.90
10314;DHT22;5202;49.138;10.090;2023-01-10T14:33:06;4.30;99.90
10314;DHT22;5202;49.138;10.090;2023-01-10T14:35:43;4.40;99.90
10314;DHT22;5202;49.138;10.090;2023-01-10T14:38:18;4.30;99.90
10314;DHT22;5202;49.138;10.090;2023-01-10T14:40:53;4.30;99.90
10314;DHT22;5202;49.138;10.090;2023-01-10T14:43:24;4.30;99.90
10314;DHT22;5202;49.138;10.090;2023-01-10T14:45:59;4.30;99.90
10314;DHT22;5202;49.138;10.090;2023-01-10T14:48:32;4.30;99.90
10314;DHT22;5202;49.138;10.090;2023-01-10T14:51:20;4.20;99.90
10314;DHT22;5202;49.138;10.090;2023-01-10T14:53:59;4.10;99.90
10314;DHT22;5202;49.138;10.090;2023-01-10T14:56:36;4.10;99.90
10314;DHT22;5202;49.138;10.090;2023-01-10T14:59:25;4.00;99.90
10314;DHT22;5202;49.138;10.090;2023-01-10T15:01:56;4.00;99.90
10314;DHT22;5202;49.138;10.090;2023-01-10T15:04:28;4.10;99.90
10314;DHT22;5202;49.138;10.090;2023-01-10T15:07:01;4.10;99.90
10314;DHT22;5202;49.138;10.090;2023-01-10T15:09:32;4.00;99.90
10314;DHT22;5202;49.138;10.090;2023-01-10T15:12:05;4.00;99.90
10314;DHT22;5202;49.138;10.090;2023-01-10T15:14:35;3.90;99.90
10314;DHT22;5202;49.138;10.090;2023-01-10T15:17:05;4.00;99.90
10314;DHT22;5202;49.138;10.090;2023-01-10T15:19:37;4.00;99.90
10314;DHT22;5202;49.138;10.090;2023-01-10T15:22:23;4.00;99.90
10314;DHT22;5202;49.138;10.090;2023-01-10T15:25:00;4.00;99.90
10314;DHT22;5202;49.138;10.090;2023-01-10T15:27:30;4.00;99.90
10314;DHT22;5202;49.138;10.090;2023-01-10T15:29:59;4.00;99.90
10314;DHT22;5202;49.138;10.090;2023-01-10T15:32:33;4.00;99.90
10314;DHT22;5202;49.138;10.090;2023-01-10T15:35:05;3.90;99.90
10314;DHT22;5202;49.138;10.090;2023-01-10T15:37:37;4.00;99.90
10314;DHT22;5202;49.138;10.090;2023-01-10T15:40:20;4.00;99.90
10314;DHT22;5202;49.138;10.090;2023-01-10T15:42:49;4.00;99.90
10314;DHT22;5202;49.138;10.090;2023-01-10T15:45:26;4.00;99.90
10314;DHT22;5202;49.138;10.090;2023-01-10T15:47:56;4.00;99.90
10314;DHT22;5202;49.138;10.090;2023-01-10T15:50:31;4.00;99.90
10314;DHT22;5202;49.138;10.090;2023-01-10T15:53:03;4.00;99.90
10314;DHT22;5202;49.138;10.090;2023-01-10T15:55:42;3.90;99.90
10314;DHT22;5202;49.138;10.090;2023-01-10T15:58:17;3.90;99.90
10314;DHT22;5202;49.138;10.090;2023-01-10T16:00:47;3.80;99.90
10314;DHT22;5202;49.138;10.090;2023-01-10T16:03:21;3.70;99.90
10314;DHT22;5202;49.138;10.090;2023-01-10T16:05:53;3.60;99.90
10314;DHT22;5202;49.138;10.090;2023-01-10T16:08:30;3.50;99.90
10314;DHT22;5202;49.138;10.090;2023-01-10T16:11:05;3.40;99.90
10314;DHT22;5202;49.138;10.090;2023-01-10T16:13:34;3.30;99.90
10314;DHT22;5202;49.138;10.090;2023-01-10T16:16:11;3.30;99.90
10314;DHT22;5202;49.138;10.090;2023-01-10T16:18:43;3.20;99.90
10314;DHT22;5202;49.138;10.090;2023-01-10T16:21:12;3.20;99.90
10314;DHT22;5202;49.138;10.090;2023-01-10T16:23:42;3.10;99.90
10314;DHT22;5202;49.138;10.090;2023-01-10T16:26:13;3.10;99.90
10314;DHT22;5202;49.138;10.090;2023-01-10T16:28:42;3.10;99.90
10314;DHT22;5202;49.138;10.090;2023-01-10T16:31:11;3.00;99.90
10314;DHT22;5202;49.138;10.090;2023-01-10T16:33:43;3.00;99.90
10314;DHT22;5202;49.138;10.090;2023-01-10T16:36:17;3.00;99.90